sensor_id;sensor_type;location;lat;lon;timestamp;temperature;humidity
2477;DHT22;1249;51.270;6.756;2022-12-08T00:01:19;8.70;99.90
2477;DHT22;1249;51.270;6.756;2022-12-08T00:03:46;8.70;99.90
2477;DHT22;1249;51.270;6.756;2022-12-08T00:06:24;8.70;99.90
2477;DHT22;1249;51.270;6.756;2022-12-08T00:09:17;8.70;99.90
2477;DHT22;1249;51.270;6.756;2022-12-08T00:11:48;8.70;99.90
2477;DHT22;1249;51.270;6.756;2022-12-08T00:14:15;8.60;99.90
2477;DHT22;1249;51.270;6.756;2022-12-08T00:16:41;8.70;99.90
2477;DHT22;1249;51.270;6.756;2022-12-08T00:19:08;8.70;99.90
2477;DHT22;1249;51.270;6.756;2022-12-08T00:21:35;8.60;99.90
2477;DHT22;1249;51.270;6.756;2022-12-08T00:24:02;8.60;99.90
2477;DHT22;1249;51.270;6.756;2022-12-08T00:26:30;8.50;99.90
2477;DHT22;1249;51.270;6.756;2022-12-08T00:28:56;8.60;99.90
2477;DHT22;1249;51.270;6.756;2022-12-08T00:31:23;8.60;99.90
2477;DHT22;1249;51.270;6.756;2022-12-08T00:33:50;8.60;99.90
2477;DHT22;1249;51.270;6.756;2022-12-08T00:36:17;8.60;99.90
2477;DHT22;1249;51.270;6.756;2022-12-08T00:38:43;8.50;99.90
2477;DHT22;1249;51.270;6.756;2022-12-08T00:41:14;8.60;99.90
2477;DHT22;1249;51.270;6.756;2022-12-08T00:43:42;8.60;99.90
2477;DHT22;1249;51.270;6.756;2022-12-08T00:46:09;8.50;99.90
2477;DHT22;1249;51.270;6.756;2022-12-08T00:48:36;8.50;99.90
2477;DHT22;1249;51.270;6.756;2022-12-08T00:51:03;8.50;99.90
2477;DHT22;1249;51.270;6.756;2022-12-08T00:53:30;8.50;99.90
2477;DHT22;1249;51.270;6.756;2022-12-08T00:55:57;8.50;99.90
2477;DHT22;1249;51.270;6.756;2022-12-08T00:58:23;8.50;99.90
2477;DHT22;1249;51.270;6.756;2022-12-08T01:00:51;8.50;99.90
2477;DHT22;1249;51.270;6.756;2022-12-08T01:03:18;8.60;99.90
2477;DHT22;1249;51.270;6.756;2022-12-08T01:05:45;8.50;99.90
2477;DHT22;1249;51.270;6.756;2022-12-08T01:08:12;8.50;99.90
2477;DHT22;1249;51.270;6.756;2022-12-08T01:10:39;8.50;99.90
2477;DHT22;1249;51.270;6.756;2022-12-08T01:13:06;8.50;99.90
2477;DHT22;1249;51.270;6.756;2022-12-08T01:15:32;8.50;99.90
2477;DHT22;1249;51.270;6.756;2022-12-08T01:18:01;8.60;99.90
2477;DHT22;1249;51.270;6.756;2022-12-08T01:20:27;8.60;99.90
2477;DHT22;1249;51.270;6.756;2022-12-08T01:22:54;8.50;99.90
2477;DHT22;1249;51.270;6.756;2022-12-08T01:25:21;8.50;99.90
2477;DHT22;1249;51.270;6.756;2022-12-08T01:27:48;8.60;99.90
2477;DHT22;1249;51.270;6.756;2022-12-08T01:30:14;8.60;99.90
2477;DHT22;1249;51.270;6.756;2022-12-08T01:32:41;8.60;99.90
2477;DHT22;1249;51.270;6.756;2022-12-08T01:35:09;8.70;99.90
2477;DHT22;1249;51.270;6.756;2022-12-08T01:37:36;8.70;99.90
2477;DHT22;1249;51.270;6.756;2022-12-08T01:40:04;8.60;99.90
2477;DHT22;1249;51.270;6.756;2022-12-08T01:42:31;8.70;99.90
2477;DHT22;1249;51.270;6.756;2022-12-08T01:45:00;8.70;99.90
2477;DHT22;1249;51.270;6.756;2022-12-08T01:47:33;8.70;99.90
2477;DHT22;1249;51.270;6.756;2022-12-08T01:50:02;8.70;99.90
2477;DHT22;1249;51.270;6.756;2022-12-08T01:52:34;8.70;99.90
2477;DHT22;1249;51.270;6.756;2022-12-08T01:55:04;8.70;99.90
2477;DHT22;1249;51.270;6.756;2022-12-08T01:57:35;8.70;99.90
2477;DHT22;1249;51.270;6.756;2022-12-08T02:00:06;8.70;99.90
2477;DHT22;1249;51.270;6.756;2022-12-08T02:02:38;8.70;99.90
2477;DHT22;1249;51.270;6.756;2022-12-08T02:05:09;8.70;99.90
2477;DHT22;1249;51.270;6.756;2022-12-08T02:07:39;8.70;99.90
2477;DHT22;1249;51.270;6.756;2022-12-08T02:10:06;8.70;99.90
2477;DHT22;1249;51.270;6.756;2022-12-08T02:12:33;8.70;99.90
2477;DHT22;1249;51.270;6.756;2022-12-08T02:15:00;8.80;99.90
2477;DHT22;1249;51.270;6.756;2022-12-08T02:17:40;8.80;99.90
2477;DHT22;1249;51.270;6.756;2022-12-08T02:20:36;8.80;99.90
2477;DHT22;1249;51.270;6.756;2022-12-08T02:23:16;8.70;99.90
2477;DHT22;1249;51.270;6.756;2022-12-08T02:25:59;8.80;99.90
2477;DHT22;1249;51.270;6.756;2022-12-08T02:28:47;8.80;99.90
2477;DHT22;1249;51.270;6.756;2022-12-08T02:31:22;8.80;99.90
2477;DHT22;1249;51.270;6.756;2022-12-08T02:34:07;8.80;99.90
2477;DHT22;1249;51.270;6.756;2022-12-08T02:36:43;8.70;99.90
2477;DHT22;1249;51.270;6.756;2022-12-08T02:39:24;8.80;99.90
2477;DHT22;1249;51.270;6.756;2022-12-08T02:41:58;8.70;99.90
2477;DHT22;1249;51.270;6.756;2022-12-08T02:44:30;8.70;99.90
2477;DHT22;1249;51.270;6.756;2022-12-08T02:47:04;8.70;99.90
2477;DHT22;1249;51.270;6.756;2022-12-08T02:49:34;8.80;99.90
2477;DHT22;1249;51.270;6.756;2022-12-08T02:52:05;8.70;99.90
2477;DHT22;1249;51.270;6.756;2022-12-08T02:54:33;8.70;99.90
2477;DHT22;1249;51.270;6.756;2022-12-08T02:57:14;8.70;99.90
2477;DHT22;1249;51.270;6.756;2022-12-08T03:00:00;8.70;99.90
2477;DHT22;1249;51.270;6.756;2022-12-08T03:02:39;8.70;99.90
2477;DHT22;1249;51.270;6.756;2022-12-08T03:05:18;8.70;99.90
2477;DHT22;1249;51.270;6.756;2022-12-08T03:07:54;8.80;99.90
2477;DHT22;1249;51.270;6.756;2022-12-08T03:10:27;8.70;99.90
2477;DHT22;1249;51.270;6.756;2022-12-08T03:12:57;8.80;99.90
2477;DHT22;1249;51.270;6.756;2022-12-08T03:15:24;8.80;99.90
2477;DHT22;1249;51.270;6.756;2022-12-08T03:17:54;8.80;99.90
2477;DHT22;1249;51.270;6.756;2022-12-08T03:20:24;8.80;99.90
2477;DHT22;1249;51.270;6.756;2022-12-08T03:22:53;8.80;99.90
2477;DHT22;1249;51.270;6.756;2022-12-08T03:25:24;8.80;99.90
2477;DHT22;1249;51.270;6.756;2022-12-08T03:27:52;8.80;99.90
2477;DHT22;1249;51.270;6.756;2022-12-08T03:30:19;8.80;99.90
2477;DHT22;1249;51.270;6.756;2022-12-08T03:32:52;8.80;99.90
2477;DHT22;1249;51.270;6.756;2022-12-08T03:35:25;8.80;99.90
2477;DHT22;1249;51.270;6.756;2022-12-08T03:38:01;8.80;99.90
2477;DHT22;1249;51.270;6.756;2022-12-08T03:40:28;8.80;99.90
2477;DHT22;1249;51.270;6.756;2022-12-08T03:42:54;8.90;99.90
2477;DHT22;1249;51.270;6.756;2022-12-08T03:45:21;8.80;99.90
2477;DHT22;1249;51.270;6.756;2022-12-08T03:47:48;8.80;99.90
2477;DHT22;1249;51.270;6.756;2022-12-08T03:50:14;8.80;99.90
2477;DHT22;1249;51.270;6.756;2022-12-08T03:52:43;8.80;99.90
2477;DHT22;1249;51.270;6.756;2022-12-08T03:55:09;8.80;99.90
2477;DHT22;1249;51.270;6.756;2022-12-08T03:57:36;8.80;99.90
2477;DHT22;1249;51.270;6.756;2022-12-08T04:00:04;8.80;99.90
2477;DHT22;1249;51.270;6.756;2022-12-08T04:02:31;8.80;99.90
2477;DHT22;1249;51.270;6.756;2022-12-08T04:04:57;8.80;99.90
2477;DHT22;1249;51.270;6.756;2022-12-08T04:07:24;8.80;99.90
2477;DHT22;1249;51.270;6.756;2022-12-08T04:09:52;8.80;99.90
2477;DHT22;1249;51.270;6.756;2022-12-08T04:12:19;8.80;99.90
2477;DHT22;1249;51.270;6.756;2022-12-08T04:14:46;8.80;99.90
2477;DHT22;1249;51.270;6.756;2022-12-08T04:17:12;8.80;99.90
2477;DHT22;1249;51.270;6.756;2022-12-08T04:19:39;8.80;99.90
2477;DHT22;1249;51.270;6.756;2022-12-08T04:22:06;8.70;99.90
2477;DHT22;1249;51.270;6.756;2022-12-08T04:24:33;8.90;99.90
2477;DHT22;1249;51.270;6.756;2022-12-08T04:27:01;8.80;99.90
2477;DHT22;1249;51.270;6.756;2022-12-08T04:29:27;8.80;99.90
2477;DHT22;1249;51.270;6.756;2022-12-08T04:31:54;8.80;99.90
2477;DHT22;1249;51.270;6.756;2022-12-08T04:34:21;8.80;99.90
2477;DHT22;1249;51.270;6.756;2022-12-08T04:36:48;8.80;99.90
2477;DHT22;1249;51.270;6.756;2022-12-08T04:39:14;8.80;99.90
2477;DHT22;1249;51.270;6.756;2022-12-08T04:41:41;8.70;99.90
2477;DHT22;1249;51.270;6.756;2022-12-08T04:44:09;8.80;99.90
2477;DHT22;1249;51.270;6.756;2022-12-08T04:46:36;8.80;99.90
2477;DHT22;1249;51.270;6.756;2022-12-08T04:49:02;8.80;99.90
2477;DHT22;1249;51.270;6.756;2022-12-08T04:51:29;8.80;99.90
2477;DHT22;1249;51.270;6.756;2022-12-08T04:53:56;8.80;99.90
2477;DHT22;1249;51.270;6.756;2022-12-08T04:56:23;8.70;99.90
2477;DHT22;1249;51.270;6.756;2022-12-08T04:58:49;8.70;99.90
2477;DHT22;1249;51.270;6.756;2022-12-08T05:01:17;8.80;99.90
2477;DHT22;1249;51.270;6.756;2022-12-08T05:03:44;8.70;99.90
2477;DHT22;1249;51.270;6.756;2022-12-08T05:06:12;8.80;99.90
2477;DHT22;1249;51.270;6.756;2022-12-08T05:08:39;8.80;99.90
2477;DHT22;1249;51.270;6.756;2022-12-08T05:11:07;8.80;99.90
2477;DHT22;1249;51.270;6.756;2022-12-08T05:13:35;8.80;99.90
2477;DHT22;1249;51.270;6.756;2022-12-08T05:16:03;8.70;99.90
2477;DHT22;1249;51.270;6.756;2022-12-08T05:18:31;8.80;99.90
2477;DHT22;1249;51.270;6.756;2022-12-08T05:20:58;8.70;99.90
2477;DHT22;1249;51.270;6.756;2022-12-08T05:23:25;8.70;99.90
2477;DHT22;1249;51.270;6.756;2022-12-08T05:25:52;8.70;99.90
2477;DHT22;1249;51.270;6.756;2022-12-08T05:28:19;8.70;99.90
2477;DHT22;1249;51.270;6.756;2022-12-08T05:30:46;8.70;99.90
2477;DHT22;1249;51.270;6.756;2022-12-08T05:33:12;8.70;99.90
2477;DHT22;1249;51.270;6.756;2022-12-08T05:35:41;8.80;99.90
2477;DHT22;1249;51.270;6.756;2022-12-08T05:38:08;8.70;99.90
2477;DHT22;1249;51.270;6.756;2022-12-08T05:40:36;8.80;99.90
2477;DHT22;1249;51.270;6.756;2022-12-08T05:43:03;8.70;99.90
2477;DHT22;1249;51.270;6.756;2022-12-08T05:45:30;8.70;99.90
2477;DHT22;1249;51.270;6.756;2022-12-08T05:47:56;8.70;99.90
2477;DHT22;1249;51.270;6.756;2022-12-08T05:50:23;8.70;99.90
2477;DHT22;1249;51.270;6.756;2022-12-08T05:52:51;8.70;99.90
2477;DHT22;1249;51.270;6.756;2022-12-08T05:55:18;8.70;99.90
2477;DHT22;1249;51.270;6.756;2022-12-08T05:57:45;8.70;99.90
2477;DHT22;1249;51.270;6.756;2022-12-08T06:00:12;8.70;99.90
2477;DHT22;1249;51.270;6.756;2022-12-08T06:02:39;8.70;99.90
2477;DHT22;1249;51.270;6.756;2022-12-08T06:05:06;8.70;99.90
2477;DHT22;1249;51.270;6.756;2022-12-08T06:07:33;8.70;99.90
2477;DHT22;1249;51.270;6.756;2022-12-08T06:10:03;8.60;99.90
2477;DHT22;1249;51.270;6.756;2022-12-08T06:12:31;8.70;99.90
2477;DHT22;1249;51.270;6.756;2022-12-08T06:14:58;8.70;99.90
2477;DHT22;1249;51.270;6.756;2022-12-08T06:17:25;8.70;99.90
2477;DHT22;1249;51.270;6.756;2022-12-08T06:19:51;8.70;99.90
2477;DHT22;1249;51.270;6.756;2022-12-08T06:22:18;8.70;99.90
2477;DHT22;1249;51.270;6.756;2022-12-08T06:24:45;8.60;99.90
2477;DHT22;1249;51.270;6.756;2022-12-08T06:27:13;8.60;99.90
2477;DHT22;1249;51.270;6.756;2022-12-08T06:29:40;8.70;99.90
2477;DHT22;1249;51.270;6.756;2022-12-08T06:32:06;8.70;99.90
2477;DHT22;1249;51.270;6.756;2022-12-08T06:34:33;8.70;99.90
2477;DHT22;1249;51.270;6.756;2022-12-08T06:37:00;8.70;99.90
2477;DHT22;1249;51.270;6.756;2022-12-08T06:39:27;8.70;99.90
2477;DHT22;1249;51.270;6.756;2022-12-08T06:41:53;8.60;99.90
2477;DHT22;1249;51.270;6.756;2022-12-08T06:44:39;8.70;99.90
2477;DHT22;1249;51.270;6.756;2022-12-08T06:47:06;8.70;99.90
2477;DHT22;1249;51.270;6.756;2022-12-08T06:49:33;8.60;99.90
2477;DHT22;1249;51.270;6.756;2022-12-08T06:51:59;9.30;99.90
2477;DHT22;1249;51.270;6.756;2022-12-08T06:54:26;10.00;99.90
2477;DHT22;1249;51.270;6.756;2022-12-08T06:56:53;10.60;99.90
2477;DHT22;1249;51.270;6.756;2022-12-08T06:59:20;11.00;99.90
2477;DHT22;1249;51.270;6.756;2022-12-08T07:01:48;11.30;99.90
2477;DHT22;1249;51.270;6.756;2022-12-08T07:04:15;10.90;99.90
2477;DHT22;1249;51.270;6.756;2022-12-08T07:06:41;10.50;99.90
2477;DHT22;1249;51.270;6.756;2022-12-08T07:09:09;10.00;99.90
2477;DHT22;1249;51.270;6.756;2022-12-08T07:11:37;9.70;99.90
2477;DHT22;1249;51.270;6.756;2022-12-08T07:14:04;9.40;99.90
2477;DHT22;1249;51.270;6.756;2022-12-08T07:16:30;9.20;99.90
2477;DHT22;1249;51.270;6.756;2022-12-08T07:18:59;9.00;99.90
2477;DHT22;1249;51.270;6.756;2022-12-08T07:21:25;8.90;99.90
2477;DHT22;1249;51.270;6.756;2022-12-08T07:23:52;8.70;99.90
2477;DHT22;1249;51.270;6.756;2022-12-08T07:26:19;8.70;99.90
2477;DHT22;1249;51.270;6.756;2022-12-08T07:28:45;8.70;99.90
2477;DHT22;1249;51.270;6.756;2022-12-08T07:31:17;8.60;99.90
2477;DHT22;1249;51.270;6.756;2022-12-08T07:33:44;8.50;99.90
2477;DHT22;1249;51.270;6.756;2022-12-08T07:36:12;8.40;99.90
2477;DHT22;1249;51.270;6.756;2022-12-08T07:38:39;8.40;99.90
2477;DHT22;1249;51.270;6.756;2022-12-08T07:41:11;8.40;99.90
2477;DHT22;1249;51.270;6.756;2022-12-08T07:43:39;8.30;99.90
2477;DHT22;1249;51.270;6.756;2022-12-08T07:46:06;8.30;99.90
2477;DHT22;1249;51.270;6.756;2022-12-08T07:48:32;8.30;99.90
2477;DHT22;1249;51.270;6.756;2022-12-08T07:51:00;8.20;99.90
2477;DHT22;1249;51.270;6.756;2022-12-08T07:53:28;8.20;99.90
2477;DHT22;1249;51.270;6.756;2022-12-08T07:55:55;8.20;99.90
2477;DHT22;1249;51.270;6.756;2022-12-08T07:58:22;8.10;99.90
2477;DHT22;1249;51.270;6.756;2022-12-08T08:00:50;8.10;99.90
2477;DHT22;1249;51.270;6.756;2022-12-08T08:03:16;8.10;99.90
2477;DHT22;1249;51.270;6.756;2022-12-08T08:05:43;8.10;99.90
2477;DHT22;1249;51.270;6.756;2022-12-08T08:08:12;8.10;99.90
2477;DHT22;1249;51.270;6.756;2022-12-08T08:10:40;8.10;99.90
2477;DHT22;1249;51.270;6.756;2022-12-08T08:13:08;8.10;99.90
2477;DHT22;1249;51.270;6.756;2022-12-08T08:15:35;8.10;99.90
2477;DHT22;1249;51.270;6.756;2022-12-08T08:18:02;8.00;99.90
2477;DHT22;1249;51.270;6.756;2022-12-08T08:20:29;7.90;99.90
2477;DHT22;1249;51.270;6.756;2022-12-08T08:22:55;8.00;99.90
2477;DHT22;1249;51.270;6.756;2022-12-08T08:25:22;8.00;99.90
2477;DHT22;1249;51.270;6.756;2022-12-08T08:27:50;8.00;99.90
2477;DHT22;1249;51.270;6.756;2022-12-08T08:30:17;8.00;99.90
2477;DHT22;1249;51.270;6.756;2022-12-08T08:32:44;8.00;99.90
2477;DHT22;1249;51.270;6.756;2022-12-08T08:35:11;7.90;99.90
2477;DHT22;1249;51.270;6.756;2022-12-08T08:37:38;7.90;99.90
2477;DHT22;1249;51.270;6.756;2022-12-08T08:40:05;7.90;99.90
2477;DHT22;1249;51.270;6.756;2022-12-08T08:42:32;7.90;99.90
2477;DHT22;1249;51.270;6.756;2022-12-08T08:45:00;7.90;99.90
2477;DHT22;1249;51.270;6.756;2022-12-08T08:47:27;7.90;99.90
2477;DHT22;1249;51.270;6.756;2022-12-08T08:49:54;7.90;99.90
2477;DHT22;1249;51.270;6.756;2022-12-08T08:52:21;7.90;99.90
2477;DHT22;1249;51.270;6.756;2022-12-08T08:54:49;7.90;99.90
2477;DHT22;1249;51.270;6.756;2022-12-08T08:57:15;7.90;99.90
2477;DHT22;1249;51.270;6.756;2022-12-08T08:59:42;7.90;99.90
2477;DHT22;1249;51.270;6.756;2022-12-08T09:02:15;7.90;99.90
2477;DHT22;1249;51.270;6.756;2022-12-08T09:04:42;7.90;99.90
2477;DHT22;1249;51.270;6.756;2022-12-08T09:07:09;7.90;99.90
2477;DHT22;1249;51.270;6.756;2022-12-08T09:09:36;8.20;99.90
2477;DHT22;1249;51.270;6.756;2022-12-08T09:12:03;8.20;99.90
2477;DHT22;1249;51.270;6.756;2022-12-08T09:14:30;8.30;99.90
2477;DHT22;1249;51.270;6.756;2022-12-08T09:16:57;8.30;99.90
2477;DHT22;1249;51.270;6.756;2022-12-08T09:19:25;8.30;99.90
2477;DHT22;1249;51.270;6.756;2022-12-08T09:21:52;8.40;99.90
2477;DHT22;1249;51.270;6.756;2022-12-08T09:24:18;8.40;99.90
2477;DHT22;1249;51.270;6.756;2022-12-08T09:26:45;8.30;99.90
2477;DHT22;1249;51.270;6.756;2022-12-08T09:29:12;8.30;99.90
2477;DHT22;1249;51.270;6.756;2022-12-08T09:31:39;8.30;99.90
2477;DHT22;1249;51.270;6.756;2022-12-08T09:34:06;8.30;99.90
2477;DHT22;1249;51.270;6.756;2022-12-08T09:36:34;8.30;99.90
2477;DHT22;1249;51.270;6.756;2022-12-08T09:39:01;8.40;99.90
2477;DHT22;1249;51.270;6.756;2022-12-08T09:41:31;8.40;99.90
2477;DHT22;1249;51.270;6.756;2022-12-08T09:44:06;8.40;99.90
2477;DHT22;1249;51.270;6.756;2022-12-08T09:46:35;8.40;99.90
2477;DHT22;1249;51.270;6.756;2022-12-08T09:49:03;8.40;99.90
2477;DHT22;1249;51.270;6.756;2022-12-08T09:51:39;8.50;99.90
2477;DHT22;1249;51.270;6.756;2022-12-08T09:54:12;8.50;99.90
2477;DHT22;1249;51.270;6.756;2022-12-08T09:56:41;8.40;99.90
2477;DHT22;1249;51.270;6.756;2022-12-08T09:59:20;8.40;99.90
2477;DHT22;1249;51.270;6.756;2022-12-08T10:01:47;8.40;99.90
2477;DHT22;1249;51.270;6.756;2022-12-08T10:04:22;8.50;99.90
2477;DHT22;1249;51.270;6.756;2022-12-08T10:06:58;8.40;99.90
2477;DHT22;1249;51.270;6.756;2022-12-08T10:09:34;8.50;99.90
2477;DHT22;1249;51.270;6.756;2022-12-08T10:12:08;8.40;99.90
2477;DHT22;1249;51.270;6.756;2022-12-08T10:14:41;8.40;99.90
2477;DHT22;1249;51.270;6.756;2022-12-08T10:17:16;8.50;99.90
2477;DHT22;1249;51.270;6.756;2022-12-08T10:19:44;8.40;99.90
2477;DHT22;1249;51.270;6.756;2022-12-08T10:22:20;8.40;99.90
2477;DHT22;1249;51.270;6.756;2022-12-08T10:24:53;8.40;99.90
2477;DHT22;1249;51.270;6.756;2022-12-08T10:27:21;8.50;99.90
2477;DHT22;1249;51.270;6.756;2022-12-08T10:29:49;8.50;99.90
2477;DHT22;1249;51.270;6.756;2022-12-08T10:32:18;8.50;99.90
2477;DHT22;1249;51.270;6.756;2022-12-08T10:34:59;8.50;99.90
2477;DHT22;1249;51.270;6.756;2022-12-08T10:37:28;8.60;99.90
2477;DHT22;1249;51.270;6.756;2022-12-08T10:39:59;8.50;99.90
2477;DHT22;1249;51.270;6.756;2022-12-08T10:42:33;8.50;99.90
2477;DHT22;1249;51.270;6.756;2022-12-08T10:45:12;8.50;99.90
2477;DHT22;1249;51.270;6.756;2022-12-08T10:47:42;8.50;99.90
2477;DHT22;1249;51.270;6.756;2022-12-08T10:50:16;8.50;99.90
2477;DHT22;1249;51.270;6.756;2022-12-08T10:52:45;8.50;99.90
2477;DHT22;1249;51.270;6.756;2022-12-08T10:55:20;8.50;99.90
2477;DHT22;1249;51.270;6.756;2022-12-08T10:57:47;8.60;99.90
2477;DHT22;1249;51.270;6.756;2022-12-08T11:00:16;8.60;99.90
2477;DHT22;1249;51.270;6.756;2022-12-08T11:02:52;8.80;99.90
2477;DHT22;1249;51.270;6.756;2022-12-08T11:05:21;8.80;99.90
2477;DHT22;1249;51.270;6.756;2022-12-08T11:07:51;8.90;99.90
2477;DHT22;1249;51.270;6.756;2022-12-08T11:10:24;9.00;99.90
2477;DHT22;1249;51.270;6.756;2022-12-08T11:12:52;9.00;99.90
2477;DHT22;1249;51.270;6.756;2022-12-08T11:15:19;9.10;99.90
2477;DHT22;1249;51.270;6.756;2022-12-08T11:17:59;9.00;99.90
2477;DHT22;1249;51.270;6.756;2022-12-08T11:20:27;9.00;99.90
2477;DHT22;1249;51.270;6.756;2022-12-08T11:23:16;9.10;99.90
2477;DHT22;1249;51.270;6.756;2022-12-08T11:25:44;9.20;99.90
2477;DHT22;1249;51.270;6.756;2022-12-08T11:28:11;9.30;99.90
2477;DHT22;1249;51.270;6.756;2022-12-08T11:30:42;9.30;99.90
2477;DHT22;1249;51.270;6.756;2022-12-08T11:33:13;9.30;99.90
2477;DHT22;1249;51.270;6.756;2022-12-08T11:35:44;9.30;99.90
2477;DHT22;1249;51.270;6.756;2022-12-08T11:38:14;9.30;99.90
2477;DHT22;1249;51.270;6.756;2022-12-08T11:40:45;9.30;99.90
2477;DHT22;1249;51.270;6.756;2022-12-08T11:43:16;9.30;99.90
2477;DHT22;1249;51.270;6.756;2022-12-08T11:45:44;9.20;99.90
2477;DHT22;1249;51.270;6.756;2022-12-08T11:48:14;9.30;99.90
2477;DHT22;1249;51.270;6.756;2022-12-08T11:50:46;9.20;99.90
2477;DHT22;1249;51.270;6.756;2022-12-08T11:53:19;9.20;99.90
2477;DHT22;1249;51.270;6.756;2022-12-08T11:55:51;9.10;99.90
2477;DHT22;1249;51.270;6.756;2022-12-08T11:58:22;9.70;99.90
2477;DHT22;1249;51.270;6.756;2022-12-08T12:00:50;10.50;99.90
2477;DHT22;1249;51.270;6.756;2022-12-08T12:03:24;11.00;99.90
2477;DHT22;1249;51.270;6.756;2022-12-08T12:06:04;10.80;99.90
2477;DHT22;1249;51.270;6.756;2022-12-08T12:08:44;10.50;99.90
2477;DHT22;1249;51.270;6.756;2022-12-08T12:11:19;10.30;99.90
2477;DHT22;1249;51.270;6.756;2022-12-08T12:14:15;10.70;99.90
2477;DHT22;1249;51.270;6.756;2022-12-08T12:17:00;10.50;99.90
2477;DHT22;1249;51.270;6.756;2022-12-08T12:19:28;10.40;99.90
2477;DHT22;1249;51.270;6.756;2022-12-08T12:22:07;10.10;99.90
2477;DHT22;1249;51.270;6.756;2022-12-08T12:24:38;10.00;99.90
2477;DHT22;1249;51.270;6.756;2022-12-08T12:27:13;9.90;99.90
2477;DHT22;1249;51.270;6.756;2022-12-08T12:29:47;9.90;99.90
2477;DHT22;1249;51.270;6.756;2022-12-08T12:32:16;9.90;99.90
2477;DHT22;1249;51.270;6.756;2022-12-08T12:34:47;9.80;99.90
2477;DHT22;1249;51.270;6.756;2022-12-08T12:37:16;9.80;99.90
2477;DHT22;1249;51.270;6.756;2022-12-08T12:39:49;9.80;99.90
2477;DHT22;1249;51.270;6.756;2022-12-08T12:42:38;9.80;99.90
2477;DHT22;1249;51.270;6.756;2022-12-08T12:45:25;9.80;99.90
2477;DHT22;1249;51.270;6.756;2022-12-08T12:48:13;9.70;99.90
2477;DHT22;1249;51.270;6.756;2022-12-08T12:50:46;9.60;99.90
2477;DHT22;1249;51.270;6.756;2022-12-08T12:53:46;9.50;99.90
2477;DHT22;1249;51.270;6.756;2022-12-08T12:56:49;9.50;99.90
2477;DHT22;1249;51.270;6.756;2022-12-08T12:59:42;9.50;99.90
2477;DHT22;1249;51.270;6.756;2022-12-08T13:02:18;9.40;99.90
2477;DHT22;1249;51.270;6.756;2022-12-08T13:04:57;9.40;99.90
2477;DHT22;1249;51.270;6.756;2022-12-08T13:07:26;9.40;99.90
2477;DHT22;1249;51.270;6.756;2022-12-08T13:09:57;9.50;99.90
2477;DHT22;1249;51.270;6.756;2022-12-08T13:12:27;9.40;99.90
2477;DHT22;1249;51.270;6.756;2022-12-08T13:14:59;9.40;99.90
2477;DHT22;1249;51.270;6.756;2022-12-08T13:17:29;9.40;99.90
2477;DHT22;1249;51.270;6.756;2022-12-08T13:19:59;9.40;99.90
2477;DHT22;1249;51.270;6.756;2022-12-08T13:22:59;9.40;99.90
2477;DHT22;1249;51.270;6.756;2022-12-08T13:25:48;9.30;99.90
2477;DHT22;1249;51.270;6.756;2022-12-08T13:28:23;9.30;99.90
2477;DHT22;1249;51.270;6.756;2022-12-08T13:30:52;9.30;99.90
2477;DHT22;1249;51.270;6.756;2022-12-08T13:33:25;9.30;99.90
2477;DHT22;1249;51.270;6.756;2022-12-08T13:36:02;9.30;99.90
2477;DHT22;1249;51.270;6.756;2022-12-08T13:38:33;9.30;99.90
2477;DHT22;1249;51.270;6.756;2022-12-08T13:41:05;9.30;99.90
2477;DHT22;1249;51.270;6.756;2022-12-08T13:43:39;9.20;99.90
2477;DHT22;1249;51.270;6.756;2022-12-08T13:46:08;9.20;99.90
2477;DHT22;1249;51.270;6.756;2022-12-08T13:48:43;9.30;99.90
2477;DHT22;1249;51.270;6.756;2022-12-08T13:51:14;9.20;99.90
2477;DHT22;1249;51.270;6.756;2022-12-08T13:53:45;9.30;99.90
2477;DHT22;1249;51.270;6.756;2022-12-08T13:56:14;9.30;99.90
2477;DHT22;1249;51.270;6.756;2022-12-08T13:58:43;9.40;99.90
2477;DHT22;1249;51.270;6.756;2022-12-08T14:01:14;9.20;99.90
2477;DHT22;1249;51.270;6.756;2022-12-08T14:03:50;9.20;99.90
2477;DHT22;1249;51.270;6.756;2022-12-08T14:06:19;9.20;99.90
2477;DHT22;1249;51.270;6.756;2022-12-08T14:08:53;9.20;99.90
2477;DHT22;1249;51.270;6.756;2022-12-08T14:11:26;9.20;99.90
2477;DHT22;1249;51.270;6.756;2022-12-08T14:14:06;9.20;99.90
2477;DHT22;1249;51.270;6.756;2022-12-08T14:16:37;9.20;99.90
2477;DHT22;1249;51.270;6.756;2022-12-08T14:19:09;9.20;99.90
2477;DHT22;1249;51.270;6.756;2022-12-08T14:21:40;9.20;99.90
2477;DHT22;1249;51.270;6.756;2022-12-08T14:24:08;9.10;99.90
2477;DHT22;1249;51.270;6.756;2022-12-08T14:26:36;9.10;99.90
2477;DHT22;1249;51.270;6.756;2022-12-08T14:29:06;9.10;99.90
2477;DHT22;1249;51.270;6.756;2022-12-08T14:31:33;9.10;99.90
2477;DHT22;1249;51.270;6.756;2022-12-08T14:34:00;9.10;99.90
2477;DHT22;1249;51.270;6.756;2022-12-08T14:36:27;9.10;99.90
2477;DHT22;1249;51.270;6.756;2022-12-08T14:38:54;9.10;99.90
2477;DHT22;1249;51.270;6.756;2022-12-08T14:41:25;9.20;99.90
2477;DHT22;1249;51.270;6.756;2022-12-08T14:44:00;9.00;99.90
2477;DHT22;1249;51.270;6.756;2022-12-08T14:46:28;9.10;99.90
2477;DHT22;1249;51.270;6.756;2022-12-08T14:48:55;9.00;99.90
2477;DHT22;1249;51.270;6.756;2022-12-08T14:51:27;9.10;99.90
2477;DHT22;1249;51.270;6.756;2022-12-08T14:53:56;9.10;99.90
2477;DHT22;1249;51.270;6.756;2022-12-08T14:56:27;9.10;99.90
2477;DHT22;1249;51.270;6.756;2022-12-08T14:59:06;9.10;99.90
2477;DHT22;1249;51.270;6.756;2022-12-08T15:01:38;9.10;99.90
2477;DHT22;1249;51.270;6.756;2022-12-08T15:04:08;9.00;99.90
2477;DHT22;1249;51.270;6.756;2022-12-08T15:06:44;9.10;99.90
2477;DHT22;1249;51.270;6.756;2022-12-08T15:09:17;9.00;99.90
2477;DHT22;1249;51.270;6.756;2022-12-08T15:11:59;9.00;99.90
2477;DHT22;1249;51.270;6.756;2022-12-08T15:14:29;9.00;99.90
2477;DHT22;1249;51.270;6.756;2022-12-08T15:16:58;9.00;99.90
2477;DHT22;1249;51.270;6.756;2022-12-08T15:19:28;9.00;99.90
2477;DHT22;1249;51.270;6.756;2022-12-08T15:21:57;9.00;99.90
2477;DHT22;1249;51.270;6.756;2022-12-08T15:24:26;9.00;99.90
2477;DHT22;1249;51.270;6.756;2022-12-08T15:26:54;9.00;99.90
2477;DHT22;1249;51.270;6.756;2022-12-08T15:29:22;8.90;99.90
2477;DHT22;1249;51.270;6.756;2022-12-08T15:31:50;8.90;99.90
2477;DHT22;1249;51.270;6.756;2022-12-08T15:34:19;8.90;99.90
2477;DHT22;1249;51.270;6.756;2022-12-08T15:36:46;8.90;99.90
2477;DHT22;1249;51.270;6.756;2022-12-08T15:39:27;8.90;99.90
2477;DHT22;1249;51.270;6.756;2022-12-08T15:41:55;9.00;99.90
2477;DHT22;1249;51.270;6.756;2022-12-08T15:44:22;8.90;99.90
2477;DHT22;1249;51.270;6.756;2022-12-08T15:46:49;9.00;99.90
2477;DHT22;1249;51.270;6.756;2022-12-08T15:49:19;8.90;99.90
2477;DHT22;1249;51.270;6.756;2022-12-08T15:51:46;8.90;99.90
2477;DHT22;1249;51.270;6.756;2022-12-08T15:54:13;8.90;99.90
2477;DHT22;1249;51.270;6.756;2022-12-08T15:56:42;8.90;99.90
2477;DHT22;1249;51.270;6.756;2022-12-08T15:59:13;8.90;99.90
2477;DHT22;1249;51.270;6.756;2022-12-08T16:01:41;8.90;99.90
2477;DHT22;1249;51.270;6.756;2022-12-08T16:04:12;8.90;99.90
2477;DHT22;1249;51.270;6.756;2022-12-08T16:06:42;8.90;99.90
2477;DHT22;1249;51.270;6.756;2022-12-08T16:09:14;8.90;99.90
2477;DHT22;1249;51.270;6.756;2022-12-08T16:11:42;8.90;99.90
2477;DHT22;1249;51.270;6.756;2022-12-08T16:14:26;8.90;99.90
2477;DHT22;1249;51.270;6.756;2022-12-08T16:16:53;8.90;99.90
2477;DHT22;1249;51.270;6.756;2022-12-08T16:19:20;8.90;99.90
2477;DHT22;1249;51.270;6.756;2022-12-08T16:21:48;8.90;99.90
2477;DHT22;1249;51.270;6.756;2022-12-08T16:24:14;8.90;99.90
2477;DHT22;1249;51.270;6.756;2022-12-08T16:26:41;9.00;99.90
2477;DHT22;1249;51.270;6.756;2022-12-08T16:29:11;8.80;99.90
2477;DHT22;1249;51.270;6.756;2022-12-08T16:31:42;8.80;99.90
2477;DHT22;1249;51.270;6.756;2022-12-08T16:34:08;9.50;99.90
2477;DHT22;1249;51.270;6.756;2022-12-08T16:36:35;10.00;99.90